createdAt,value
2019-03-19T00:00:59.656Z,23.30
2019-03-19T00:03:26.797Z,23.30
2019-03-19T00:05:54.122Z,23.30
2019-03-19T00:08:20.957Z,23.30
2019-03-19T00:10:48.045Z,23.20
2019-03-19T00:13:15.042Z,23.20
2019-03-19T00:15:44.272Z,23.20
2019-03-19T00:18:11.603Z,23.20
2019-03-19T00:20:38.543Z,23.10
2019-03-19T00:23:07.662Z,23.10
2019-03-19T00:25:35.076Z,23.10
2019-03-19T00:28:02.569Z,23.10
2019-03-19T00:30:29.791Z,23.10
2019-03-19T00:32:58.131Z,23.10
2019-03-19T00:35:25.395Z,23.00
2019-03-19T00:37:52.209Z,23.00
2019-03-19T00:40:18.940Z,23.00
2019-03-19T00:42:45.404Z,23.00
2019-03-19T00:45:13.157Z,23.00
2019-03-19T00:47:41.049Z,22.90
2019-03-19T00:50:12.239Z,22.90
2019-03-19T00:52:39.160Z,22.80
2019-03-19T00:55:06.737Z,22.90
2019-03-19T00:57:33.841Z,22.80
2019-03-19T01:00:00.543Z,22.80
2019-03-19T01:02:27.429Z,22.70
2019-03-19T01:04:54.060Z,22.60
2019-03-19T01:07:21.920Z,22.60
2019-03-19T01:09:48.968Z,22.60
2019-03-19T01:12:15.807Z,22.50
2019-03-19T01:14:42.256Z,22.50
2019-03-19T01:17:08.971Z,22.50
2019-03-19T01:19:35.495Z,22.50
2019-03-19T01:22:02.169Z,22.50
2019-03-19T01:24:28.975Z,22.50
2019-03-19T01:26:55.518Z,22.50
2019-03-19T01:29:22.037Z,22.50
2019-03-19T01:31:48.605Z,22.50
2019-03-19T01:34:15.733Z,22.50
2019-03-19T01:36:42.431Z,22.50
2019-03-19T01:39:09.003Z,22.40
2019-03-19T01:41:36.047Z,22.40
2019-03-19T01:44:02.943Z,22.30
2019-03-19T01:46:29.486Z,22.30
2019-03-19T01:48:55.927Z,22.30
2019-03-19T01:51:22.380Z,22.30
2019-03-19T01:53:49.376Z,22.20
2019-03-19T01:56:16.027Z,22.20
2019-03-19T01:58:42.454Z,22.10
2019-03-19T02:01:09.246Z,22.10
2019-03-19T02:03:35.788Z,22.10
2019-03-19T02:06:02.503Z,22.10
2019-03-19T02:08:29.412Z,22.10
2019-03-19T02:10:58.529Z,22.00
2019-03-19T02:13:26.103Z,22.00
2019-03-19T02:15:53.078Z,21.90
2019-03-19T02:18:19.772Z,21.80
2019-03-19T02:20:50.205Z,21.80
2019-03-19T02:23:19.105Z,21.70
2019-03-19T02:25:46.453Z,21.70
2019-03-19T02:28:13.497Z,21.60
2019-03-19T02:30:43.048Z,21.60
2019-03-19T02:33:11.983Z,21.60
2019-03-19T02:35:39.274Z,21.70
2019-03-19T02:38:05.738Z,21.60
2019-03-19T02:40:33.634Z,21.60
2019-03-19T02:43:00.674Z,21.60
2019-03-19T02:45:27.837Z,21.60
2019-03-19T02:47:57.331Z,21.60
2019-03-19T02:50:24.135Z,21.60
2019-03-19T02:52:50.906Z,21.50
2019-03-19T02:55:17.951Z,21.60
2019-03-19T02:57:49.040Z,21.60
2019-03-19T03:00:16.813Z,21.50
2019-03-19T03:02:43.360Z,21.50
2019-03-19T03:05:15.146Z,21.60
2019-03-19T03:07:41.735Z,21.50
2019-03-19T03:10:09.704Z,21.50
2019-03-19T03:12:40.304Z,21.50
2019-03-19T03:15:14.804Z,21.50
2019-03-19T03:17:45.907Z,21.50
2019-03-19T03:20:17.163Z,21.50
2019-03-19T03:22:44.539Z,21.50
2019-03-19T03:25:12.239Z,21.40
2019-03-19T03:27:38.831Z,21.40
2019-03-19T03:30:20.223Z,21.30
2019-03-19T03:32:49.785Z,21.30
2019-03-19T03:35:17.675Z,21.40
2019-03-19T03:37:44.826Z,21.40
2019-03-19T03:40:18.740Z,21.50
2019-03-19T03:42:49.114Z,21.50
2019-03-19T03:45:16.942Z,21.60
2019-03-19T03:47:43.854Z,21.60
2019-03-19T03:50:14.350Z,21.60
2019-03-19T03:52:43.658Z,21.60
2019-03-19T03:55:12.335Z,21.50
2019-03-19T03:57:39.237Z,21.40
2019-03-19T04:00:12.472Z,21.40
2019-03-19T04:02:39.266Z,21.40
2019-03-19T04:05:06.399Z,21.30
2019-03-19T04:07:32.997Z,21.20
2019-03-19T04:10:02.971Z,21.20
2019-03-19T04:12:30.600Z,21.20
2019-03-19T04:14:57.346Z,21.20
2019-03-19T04:17:23.905Z,21.30
2019-03-19T04:19:50.745Z,21.30
2019-03-19T04:22:17.332Z,21.30
2019-03-19T04:24:43.836Z,21.30
2019-03-19T04:27:16.460Z,21.40
2019-03-19T04:29:40.023Z,21.40
2019-03-19T04:32:10.041Z,21.40
2019-03-19T04:34:40.467Z,21.30
2019-03-19T04:37:12.048Z,21.30
2019-03-19T04:39:39.662Z,21.30
2019-03-19T04:42:06.221Z,21.30
2019-03-19T04:44:34.470Z,21.30
2019-03-19T04:47:04.740Z,21.30
2019-03-19T04:49:31.840Z,21.30
2019-03-19T04:51:59.835Z,21.30
2019-03-19T04:54:29.019Z,21.30
2019-03-19T04:56:58.371Z,21.40
2019-03-19T04:59:27.487Z,21.40
2019-03-19T05:01:56.617Z,21.30
2019-03-19T05:04:23.059Z,21.30
2019-03-19T05:06:49.528Z,21.30
2019-03-19T05:09:16.069Z,21.30
2019-03-19T05:11:42.551Z,21.30
2019-03-19T05:14:09.395Z,21.40
2019-03-19T05:16:37.048Z,21.40
2019-03-19T05:19:03.599Z,21.50
2019-03-19T05:21:30.703Z,21.50
2019-03-19T05:23:58.265Z,21.50
2019-03-19T05:26:27.922Z,21.60
2019-03-19T05:28:54.488Z,21.70
2019-03-19T05:31:22.449Z,21.90
2019-03-19T05:33:49.501Z,22.10
2019-03-19T05:36:19.549Z,22.40
2019-03-19T05:38:47.101Z,22.70
2019-03-19T05:41:13.566Z,23.10
2019-03-19T05:43:40.054Z,23.50
2019-03-19T05:46:08.243Z,23.80
2019-03-19T05:48:35.802Z,24.10
2019-03-19T05:51:03.162Z,24.40
2019-03-19T05:53:29.749Z,24.50
2019-03-19T05:55:56.696Z,24.70
2019-03-19T05:58:23.108Z,24.80
2019-03-19T06:00:54.454Z,25.00
2019-03-19T06:03:22.820Z,25.10
2019-03-19T06:05:52.086Z,25.30
2019-03-19T06:08:19.433Z,25.60
2019-03-19T06:10:45.886Z,25.80
2019-03-19T06:13:12.647Z,25.90
2019-03-19T06:15:39.093Z,26.00
2019-03-19T06:18:08.164Z,26.20
2019-03-19T06:20:38.175Z,26.30
2019-03-19T06:23:05.916Z,26.30
2019-03-19T06:25:37.408Z,26.30
2019-03-19T06:28:04.182Z,26.30
2019-03-19T06:30:31.134Z,26.20
2019-03-19T06:32:57.736Z,26.20
2019-03-19T06:35:25.800Z,26.20
2019-03-19T06:37:52.381Z,26.20
2019-03-19T06:40:20.536Z,26.10
2019-03-19T06:42:47.202Z,26.20
2019-03-19T06:45:16.800Z,26.30
2019-03-19T06:47:44.004Z,26.50
2019-03-19T06:50:13.417Z,26.50
2019-03-19T06:52:39.906Z,26.60
2019-03-19T06:55:16.197Z,26.60
2019-03-19T06:57:45.930Z,26.70
2019-03-19T07:00:18.894Z,26.80
2019-03-19T07:02:46.695Z,27.00
2019-03-19T07:05:14.821Z,27.00
2019-03-19T07:07:41.550Z,27.00
2019-03-19T07:10:13.522Z,27.10
2019-03-19T07:12:43.269Z,27.10
2019-03-19T07:15:12.772Z,27.10
2019-03-19T07:17:39.571Z,27.10
2019-03-19T07:20:09.800Z,27.20
2019-03-19T07:22:38.421Z,27.20
2019-03-19T07:25:06.165Z,27.40
2019-03-19T07:27:35.767Z,27.50
2019-03-19T07:30:16.972Z,27.70
2019-03-19T07:32:44.915Z,27.70
2019-03-19T07:35:12.433Z,27.90
2019-03-19T07:37:41.364Z,28.00
2019-03-19T07:40:10.798Z,28.10
2019-03-19T07:42:37.751Z,28.10
2019-03-19T07:45:15.731Z,28.20
2019-03-19T07:47:47.624Z,28.30
2019-03-19T07:50:18.728Z,28.50
2019-03-19T07:52:46.029Z,28.70
2019-03-19T07:55:13.167Z,28.80
2019-03-19T07:57:42.910Z,28.90
2019-03-19T08:00:14.932Z,29.00
2019-03-19T08:02:41.891Z,29.00
2019-03-19T08:05:09.773Z,29.00
2019-03-19T08:07:37.845Z,29.00
2019-03-19T08:10:13.226Z,29.00
2019-03-19T08:12:45.081Z,28.90
2019-03-19T08:15:17.871Z,28.90
2019-03-19T08:17:44.849Z,29.00
2019-03-19T08:20:12.500Z,29.20
2019-03-19T08:22:39.036Z,29.30
2019-03-19T08:25:08.874Z,29.30
2019-03-19T08:27:35.443Z,29.30
2019-03-19T08:30:01.907Z,29.30
2019-03-19T08:32:28.646Z,29.20
2019-03-19T08:34:58.295Z,29.10
2019-03-19T08:37:25.507Z,28.90
2019-03-19T08:39:52.002Z,28.70
2019-03-19T08:42:18.553Z,28.40
2019-03-19T08:44:45.029Z,28.20
2019-03-19T08:47:11.539Z,28.10
2019-03-19T08:49:38.898Z,28.00
2019-03-19T08:52:05.319Z,28.00
2019-03-19T08:54:32.709Z,27.90
2019-03-19T08:56:59.234Z,27.90
2019-03-19T08:59:25.705Z,27.70
2019-03-19T09:01:52.148Z,27.50
2019-03-19T09:04:18.622Z,27.60
2019-03-19T09:06:45.080Z,27.60
2019-03-19T09:09:11.554Z,27.50
2019-03-19T09:11:38.090Z,27.50
2019-03-19T09:14:04.550Z,27.40
2019-03-19T09:16:31.585Z,27.40
2019-03-19T09:18:58.193Z,27.20
2019-03-19T09:21:25.059Z,27.20
2019-03-19T09:23:51.659Z,27.20
2019-03-19T09:26:18.320Z,27.10
2019-03-19T09:28:44.757Z,27.20
2019-03-19T09:31:11.493Z,27.20
2019-03-19T09:33:37.951Z,27.20
2019-03-19T09:36:04.427Z,27.30
2019-03-19T09:38:31.189Z,27.20
2019-03-19T09:40:58.060Z,27.00
2019-03-19T09:43:24.651Z,27.00
2019-03-19T09:45:51.139Z,27.10
2019-03-19T09:48:17.709Z,27.10
2019-03-19T09:50:44.242Z,27.10
2019-03-19T09:53:10.682Z,27.10
2019-03-19T09:55:37.375Z,27.00
2019-03-19T09:58:03.829Z,27.00
2019-03-19T10:00:30.315Z,27.10
2019-03-19T10:02:56.750Z,27.10
2019-03-19T10:05:23.227Z,27.00
2019-03-19T10:07:49.677Z,26.90
2019-03-19T10:10:21.827Z,26.90
2019-03-19T10:12:48.404Z,26.90
2019-03-19T10:15:14.974Z,27.00
2019-03-19T10:17:41.415Z,27.10
2019-03-19T10:20:11.722Z,27.00
2019-03-19T10:22:38.284Z,26.90
2019-03-19T10:25:08.259Z,27.00
2019-03-19T10:27:34.913Z,27.00
2019-03-19T10:30:01.577Z,26.80
2019-03-19T10:32:28.227Z,26.70
2019-03-19T10:34:54.839Z,26.60
2019-03-19T10:37:21.294Z,26.40
2019-03-19T10:39:47.879Z,26.50
2019-03-19T10:42:14.314Z,26.50
2019-03-19T10:44:40.787Z,26.60
2019-03-19T10:47:07.264Z,26.80
2019-03-19T10:49:34.799Z,26.70
2019-03-19T10:52:02.341Z,26.70
2019-03-19T10:54:29.060Z,26.60
2019-03-19T10:56:55.519Z,26.40
2019-03-19T10:59:22.082Z,26.30
2019-03-19T11:01:48.679Z,26.20
2019-03-19T11:04:15.334Z,26.10
2019-03-19T11:06:41.975Z,26.20
2019-03-19T11:09:08.427Z,26.20
2019-03-19T11:11:35.002Z,26.10
2019-03-19T11:14:01.551Z,26.10
2019-03-19T11:16:28.019Z,26.10
2019-03-19T11:18:54.627Z,26.10
2019-03-19T11:21:21.134Z,25.90
2019-03-19T11:23:47.678Z,26.00
2019-03-19T11:26:14.289Z,26.10
2019-03-19T11:28:40.839Z,26.20
2019-03-19T11:31:07.509Z,26.30
2019-03-19T11:33:34.062Z,26.40
2019-03-19T11:36:00.655Z,26.60
2019-03-19T11:38:27.115Z,26.70
2019-03-19T11:40:54.026Z,26.90
2019-03-19T11:43:20.592Z,26.90
2019-03-19T11:45:47.063Z,26.90
2019-03-19T11:48:13.506Z,26.90
2019-03-19T11:50:40.005Z,26.90
2019-03-19T11:53:06.475Z,27.00
2019-03-19T11:55:32.992Z,27.00
2019-03-19T11:57:59.491Z,27.00
2019-03-19T12:00:31.914Z,27.10
2019-03-19T12:02:58.460Z,27.30
2019-03-19T12:05:24.830Z,27.40
2019-03-19T12:07:51.307Z,27.60
2019-03-19T12:10:17.765Z,27.80
2019-03-19T12:12:44.439Z,28.00
2019-03-19T12:15:11.230Z,28.20
2019-03-19T12:17:37.989Z,28.40
2019-03-19T12:20:09.927Z,28.40
2019-03-19T12:22:36.482Z,28.20
2019-03-19T12:25:05.236Z,28.10
2019-03-19T12:27:31.858Z,28.00
2019-03-19T12:29:58.848Z,27.80
2019-03-19T12:32:26.293Z,27.70
2019-03-19T12:34:53.171Z,27.50
2019-03-19T12:37:20.519Z,27.30
2019-03-19T12:39:47.627Z,27.00
2019-03-19T12:42:15.213Z,26.90
2019-03-19T12:44:41.786Z,27.00
2019-03-19T12:47:08.967Z,27.10
2019-03-19T12:49:36.023Z,27.20
2019-03-19T12:52:02.487Z,27.40
2019-03-19T12:54:29.290Z,27.50
2019-03-19T12:56:55.763Z,27.50
2019-03-19T12:59:22.234Z,27.40
2019-03-19T13:01:48.794Z,27.30
2019-03-19T13:04:15.227Z,27.30
2019-03-19T13:06:42.860Z,27.30
2019-03-19T13:09:10.154Z,27.40
2019-03-19T13:11:37.058Z,27.50
2019-03-19T13:14:03.614Z,27.60
2019-03-19T13:16:30.808Z,27.60
2019-03-19T13:18:57.503Z,27.60
2019-03-19T13:21:24.137Z,27.60
2019-03-19T13:23:50.580Z,27.60
2019-03-19T13:26:17.152Z,27.50
2019-03-19T13:28:44.228Z,27.50
2019-03-19T13:31:11.004Z,27.50
2019-03-19T13:33:38.021Z,27.60
2019-03-19T13:36:06.293Z,27.60
2019-03-19T13:38:33.138Z,27.60
2019-03-19T13:40:59.926Z,27.60
2019-03-19T13:43:27.134Z,27.70
2019-03-19T13:45:53.628Z,27.70
2019-03-19T13:48:20.692Z,27.70
2019-03-19T13:50:47.613Z,27.70
2019-03-19T13:53:15.302Z,27.60
2019-03-19T13:55:42.371Z,27.50
2019-03-19T13:58:10.209Z,27.50
2019-03-19T14:00:36.839Z,27.40
2019-03-19T14:03:03.874Z,27.30
2019-03-19T14:05:30.669Z,27.30
2019-03-19T14:07:57.239Z,27.30
2019-03-19T14:10:23.796Z,27.20
2019-03-19T14:12:50.271Z,27.00
2019-03-19T14:15:22.612Z,27.00
2019-03-19T14:17:49.229Z,26.90
2019-03-19T14:20:16.633Z,26.80
2019-03-19T14:22:46.191Z,26.80
2019-03-19T14:25:13.823Z,26.80
2019-03-19T14:27:41.946Z,26.80
2019-03-19T14:30:18.902Z,26.70
2019-03-19T14:32:45.478Z,26.80
2019-03-19T14:35:11.957Z,26.70
2019-03-19T14:37:39.607Z,26.60
2019-03-19T14:40:09.843Z,26.40
2019-03-19T14:42:36.482Z,26.20
2019-03-19T14:45:06.721Z,26.00
2019-03-19T14:47:33.378Z,25.90
2019-03-19T14:50:02.665Z,25.80
2019-03-19T14:52:29.470Z,25.80
2019-03-19T14:54:58.888Z,25.80
2019-03-19T14:57:25.492Z,25.80
2019-03-19T14:59:53.356Z,25.80
2019-03-19T15:02:20.139Z,25.80
2019-03-19T15:04:46.631Z,25.80
2019-03-19T15:07:13.281Z,25.90
2019-03-19T15:09:39.915Z,25.90
2019-03-19T15:12:06.490Z,26.00
2019-03-19T15:14:33.010Z,26.00
2019-03-19T15:17:04.842Z,26.00
2019-03-19T15:19:28.018Z,25.90
2019-03-19T15:21:54.956Z,25.90
2019-03-19T15:24:24.060Z,25.80
2019-03-19T15:26:50.976Z,25.70
2019-03-19T15:29:18.884Z,25.70
2019-03-19T15:31:46.366Z,25.70
2019-03-19T15:34:12.967Z,25.70
2019-03-19T15:36:39.689Z,25.60
2019-03-19T15:39:11.246Z,25.60
2019-03-19T15:41:38.165Z,25.60
2019-03-19T15:44:04.757Z,25.60
2019-03-19T15:46:31.344Z,25.60
2019-03-19T15:49:00.281Z,25.70
2019-03-19T15:51:26.444Z,25.70
2019-03-19T15:53:53.041Z,25.80
2019-03-19T15:56:19.912Z,25.80
2019-03-19T15:58:47.304Z,25.70
2019-03-19T16:01:16.960Z,25.70
2019-03-19T16:03:42.661Z,25.60
2019-03-19T16:06:09.788Z,25.60
2019-03-19T16:08:36.378Z,25.60
2019-03-19T16:11:02.951Z,25.60
2019-03-19T16:13:29.527Z,25.70
2019-03-19T16:15:56.286Z,25.70
2019-03-19T16:18:25.083Z,25.80
2019-03-19T16:20:53.404Z,25.80
2019-03-19T16:23:20.012Z,25.80
2019-03-19T16:25:48.131Z,25.80
2019-03-19T16:28:14.645Z,25.80
2019-03-19T16:30:41.871Z,25.80
2019-03-19T16:33:10.250Z,25.80
2019-03-19T16:35:36.951Z,25.70
2019-03-19T16:38:04.001Z,25.50
2019-03-19T16:40:31.041Z,25.50
2019-03-19T16:42:57.882Z,25.40
2019-03-19T16:45:24.425Z,25.30
2019-03-19T16:47:51.770Z,25.20
2019-03-19T16:50:20.281Z,25.20
2019-03-19T16:52:47.640Z,25.20
2019-03-19T16:55:15.617Z,25.10
2019-03-19T16:57:44.419Z,25.10
2019-03-19T17:00:26.180Z,25.10
2019-03-19T17:02:54.629Z,25.10
2019-03-19T17:05:22.193Z,25.10
2019-03-19T17:07:49.317Z,25.10
2019-03-19T17:10:18.935Z,25.10
2019-03-19T17:12:45.584Z,25.10
2019-03-19T17:15:16.213Z,25.10
2019-03-19T17:17:43.256Z,25.10
2019-03-19T17:20:13.189Z,25.10
2019-03-19T17:22:39.867Z,25.10
2019-03-19T17:25:11.760Z,25.10
2019-03-19T17:27:38.513Z,25.10
2019-03-19T17:30:14.248Z,25.10
2019-03-19T17:32:41.091Z,25.00
2019-03-19T17:35:08.029Z,25.00
2019-03-19T17:37:34.983Z,25.00
2019-03-19T17:40:03.064Z,25.00
2019-03-19T17:42:31.023Z,25.00
2019-03-19T17:44:57.813Z,25.00
2019-03-19T17:47:24.524Z,24.90
2019-03-19T17:49:51.239Z,24.90
2019-03-19T17:52:17.819Z,24.90
2019-03-19T17:54:44.808Z,24.80
2019-03-19T17:57:11.417Z,24.80
2019-03-19T17:59:37.914Z,24.80
2019-03-19T18:02:04.511Z,24.80
2019-03-19T18:04:31.002Z,24.70
2019-03-19T18:06:57.614Z,24.70
2019-03-19T18:09:26.035Z,24.70
2019-03-19T18:11:52.891Z,24.70
2019-03-19T18:14:19.369Z,24.80
2019-03-19T18:16:48.098Z,24.80
2019-03-19T18:19:15.142Z,24.90
2019-03-19T18:21:44.567Z,25.00
2019-03-19T18:24:11.706Z,25.10
2019-03-19T18:26:38.633Z,25.10
2019-03-19T18:29:05.456Z,25.20
2019-03-19T18:31:32.418Z,25.30
2019-03-19T18:34:09.701Z,25.30
2019-03-19T18:36:29.315Z,25.30
2019-03-19T18:38:56.522Z,25.30
2019-03-19T18:41:23.876Z,25.30
2019-03-19T18:43:50.744Z,25.30
2019-03-19T18:46:17.573Z,25.30
2019-03-19T18:48:44.159Z,25.30
2019-03-19T18:51:10.929Z,25.30
2019-03-19T18:53:38.534Z,25.20
2019-03-19T18:56:05.569Z,25.20
2019-03-19T18:58:32.594Z,25.10
2019-03-19T19:00:59.853Z,25.10
2019-03-19T19:03:26.879Z,25.00
2019-03-19T19:05:53.909Z,25.00
2019-03-19T19:08:22.213Z,24.90
2019-03-19T19:10:50.039Z,24.80
2019-03-19T19:13:17.114Z,24.80
2019-03-19T19:15:46.621Z,24.80
2019-03-19T19:18:13.649Z,24.80
2019-03-19T19:20:40.806Z,24.80
2019-03-19T19:23:07.638Z,24.80
2019-03-19T19:25:34.480Z,24.70
2019-03-19T19:28:01.329Z,24.70
2019-03-19T19:30:28.980Z,24.70
2019-03-19T19:33:01.619Z,24.60
2019-03-19T19:35:24.541Z,24.60
2019-03-19T19:37:51.549Z,24.60
2019-03-19T19:40:18.937Z,24.60
2019-03-19T19:42:46.371Z,24.60
2019-03-19T19:45:17.826Z,24.50
2019-03-19T19:47:44.870Z,24.50
2019-03-19T19:50:14.282Z,24.40
2019-03-19T19:52:42.069Z,24.40
2019-03-19T19:55:10.399Z,24.40
2019-03-19T19:57:37.313Z,24.40
2019-03-19T20:00:07.691Z,24.40
2019-03-19T20:02:35.212Z,24.30
2019-03-19T20:05:03.313Z,24.30
2019-03-19T20:07:30.867Z,24.40
2019-03-19T20:09:57.707Z,24.40
2019-03-19T20:12:24.670Z,24.50
2019-03-19T20:14:51.570Z,24.50
2019-03-19T20:17:18.300Z,24.50
2019-03-19T20:19:45.566Z,24.50
2019-03-19T20:22:13.392Z,24.40
2019-03-19T20:24:40.375Z,24.40
2019-03-19T20:27:08.195Z,24.40
2019-03-19T20:29:37.086Z,24.40
2019-03-19T20:32:03.605Z,24.30
2019-03-19T20:34:30.737Z,24.30
2019-03-19T20:36:57.566Z,24.20
2019-03-19T20:39:24.141Z,24.20
2019-03-19T20:41:51.127Z,24.10
2019-03-19T20:44:18.192Z,24.10
2019-03-19T20:46:47.097Z,24.10
2019-03-19T20:49:15.866Z,24.10
2019-03-19T20:51:43.200Z,24.20
2019-03-19T20:54:10.056Z,24.20
2019-03-19T20:56:36.869Z,24.20
2019-03-19T20:59:08.393Z,24.10
2019-03-19T21:01:44.371Z,24.10
2019-03-19T21:04:15.379Z,24.00
2019-03-19T21:06:42.614Z,23.90
2019-03-19T21:09:09.769Z,23.80
2019-03-19T21:11:36.576Z,23.80
2019-03-19T21:14:03.678Z,23.70
2019-03-19T21:16:30.573Z,23.70
2019-03-19T21:18:57.610Z,23.60
2019-03-19T21:21:24.656Z,23.50
2019-03-19T21:23:51.686Z,23.40
2019-03-19T21:26:18.806Z,23.30
2019-03-19T21:28:45.801Z,23.20
2019-03-19T21:31:12.858Z,23.10
2019-03-19T21:33:50.482Z,23.00
2019-03-19T21:36:08.636Z,22.90
2019-03-19T21:38:45.686Z,22.80
2019-03-19T21:41:14.195Z,22.70
2019-03-19T21:43:43.008Z,22.60
2019-03-19T21:46:18.520Z,22.50
2019-03-19T21:48:47.413Z,22.50
2019-03-19T21:51:14.460Z,22.40
2019-03-19T21:53:41.300Z,22.40
2019-03-19T21:56:08.179Z,22.40
2019-03-19T21:58:37.339Z,22.40
2019-03-19T22:01:05.306Z,22.40
2019-03-19T22:03:32.252Z,22.30
2019-03-19T22:05:59.123Z,22.30
2019-03-19T22:08:26.653Z,22.20
2019-03-19T22:10:54.523Z,22.20
2019-03-19T22:13:21.350Z,22.20
2019-03-19T22:15:48.527Z,22.20
2019-03-19T22:18:16.297Z,22.10
2019-03-19T22:20:43.623Z,22.10
2019-03-19T22:23:12.152Z,22.10
2019-03-19T22:25:41.973Z,22.10
2019-03-19T22:28:09.055Z,22.10
2019-03-19T22:30:35.888Z,22.00
2019-03-19T22:33:03.480Z,22.00
2019-03-19T22:35:38.967Z,21.90
2019-03-19T22:38:05.861Z,21.90
2019-03-19T22:40:32.586Z,21.90
2019-03-19T22:43:00.234Z,21.90
2019-03-19T22:45:26.793Z,21.90
2019-03-19T22:47:53.235Z,21.90
2019-03-19T22:50:20.450Z,21.80
2019-03-19T22:52:47.283Z,21.80
2019-03-19T22:55:14.758Z,21.80
2019-03-19T22:57:45.096Z,21.80
2019-03-19T23:00:36.448Z,21.80
2019-03-19T23:03:04.802Z,21.80
2019-03-19T23:05:32.721Z,21.80
2019-03-19T23:07:59.459Z,21.80
2019-03-19T23:10:26.616Z,21.90
2019-03-19T23:12:53.292Z,21.80
2019-03-19T23:15:19.854Z,21.80
2019-03-19T23:17:46.412Z,21.70
2019-03-19T23:20:13.367Z,21.70
2019-03-19T23:22:39.817Z,21.70
2019-03-19T23:25:06.391Z,21.70
2019-03-19T23:27:32.963Z,21.70
2019-03-19T23:30:01.484Z,21.70
2019-03-19T23:32:28.045Z,21.60
2019-03-19T23:34:55.008Z,21.60
2019-03-19T23:37:21.544Z,21.60
2019-03-19T23:39:48.804Z,21.60
2019-03-19T23:42:15.954Z,21.60
2019-03-19T23:44:42.558Z,21.60
2019-03-19T23:47:09.128Z,21.60
2019-03-19T23:49:35.718Z,21.60
2019-03-19T23:52:02.413Z,21.60
2019-03-19T23:54:29.353Z,21.60
2019-03-19T23:56:56.249Z,21.60
2019-03-19T23:59:22.826Z,21.60
